Time;durP1;ratioP1;P1;durP2;ratioP2;P2;SDS_P1;SDS_P2;PMS_P1;PMS_P2;Temp;Humidity;BMP_temperature;BMP_pressure;BME280_temperature;BME280_humidity;BME280_pressure;Samples;Min_cycle;Max_cycle;Signal;HPM_P1;HPM_P2
2021/12/05 00:24:15;;;;;;;55.40;28.23;;;-0.10;77.80;;;;;;5039043;28;20049;-33
2021/12/05 00:26:48;;;;;;;62.55;28.70;;;0.00;78.00;;;;;;5038734;28;20108;-35
2021/12/05 00:45:42;;;;;;;58.05;31.13;;;0.10;77.60;;;;;;5037632;28;20430;-44
2021/12/05 01:15:06;;;;;;;58.05;27.67;;;0.00;77.20;;;;;;5038266;28;20040;-33
2021/12/05 01:18:01;;;;;;;59.75;28.65;;;0.00;77.20;;;;;;5038091;28;20056;-45
2021/12/05 01:20:25;;;;;;;59.35;29.23;;;0.00;77.20;;;;;;5038103;28;20414;-34
2021/12/05 01:23:15;;;;;;;62.70;29.75;;;0.00;77.00;;;;;;5037705;28;20112;-34
2021/12/05 01:41:08;;;;;;;62.78;30.10;;;-0.10;77.10;;;;;;5037312;28;20092;-45
2021/12/05 01:49:56;;;;;;;54.10;26.77;;;-0.10;77.30;;;;;;5036943;28;20041;-45
2021/12/05 02:43:07;;;;;;;79.15;37.58;;;0.20;78.10;;;;;;5036301;28;20072;-43
2021/12/05 02:45:35;;;;;;;75.63;35.40;;;0.20;78.10;;;;;;5036531;28;20120;-33
2021/12/05 02:48:01;;;;;;;87.32;36.85;;;0.30;78.30;;;;;;5036162;28;20033;-45
2021/12/05 02:50:30;;;;;;;93.57;37.20;;;0.30;78.30;;;;;;5036623;28;20116;-45
2021/12/05 02:53:01;;;;;;;95.75;40.05;;;0.30;78.50;;;;;;5036375;28;20041;-33
2021/12/05 02:55:41;;;;;;;84.32;35.50;;;0.40;78.40;;;;;;5036361;28;20333;-33
2021/12/05 02:58:23;;;;;;;98.43;38.85;;;0.40;78.40;;;;;;5036138;28;20049;-33
2021/12/05 03:03:19;;;;;;;87.30;39.90;;;0.40;78.30;;;;;;5036264;28;20040;-35
2021/12/05 03:06:16;;;;;;;88.60;35.47;;;0.50;78.30;;;;;;5036537;28;20334;-33
2021/12/05 03:08:43;;;;;;;78.95;35.50;;;0.50;78.20;;;;;;5035914;28;20049;-47
2021/12/05 03:11:09;;;;;;;76.93;34.63;;;0.50;78.30;;;;;;5036087;28;20029;-45
2021/12/05 03:13:37;;;;;;;81.43;38.33;;;0.50;78.40;;;;;;5035975;28;20041;-45
2021/12/05 03:16:04;;;;;;;78.22;37.03;;;0.50;78.30;;;;;;5036131;28;20178;-33
2021/12/05 03:18:30;;;;;;;83.15;35.70;;;0.50;78.10;;;;;;5035715;28;20095;-33
2021/12/05 03:20:58;;;;;;;70.45;31.15;;;0.50;78.10;;;;;;5036235;28;20108;-38
2021/12/05 03:23:25;;;;;;;69.75;31.90;;;0.50;78.00;;;;;;5039604;28;20033;-35
2021/12/05 03:25:51;;;;;;;68.78;33.10;;;0.50;77.90;;;;;;5039748;28;20028;-34
2021/12/05 03:28:17;;;;;;;84.25;38.08;;;0.50;77.80;;;;;;5039710;28;20026;-33
2021/12/05 03:30:43;;;;;;;72.20;35.03;;;0.50;77.80;;;;;;5039591;28;20409;-44
2021/12/05 03:33:09;;;;;;;69.53;34.83;;;0.50;77.80;;;;;;5039982;28;20032;-34
2021/12/05 03:35:35;;;;;;;73.40;34.47;;;0.40;78.00;;;;;;5039793;28;20045;-45
2021/12/05 03:38:00;;;;;;;74.70;36.13;;;0.40;78.30;;;;;;5039939;28;20441;-45
2021/12/05 03:40:29;;;;;;;65.75;32.03;;;0.50;78.50;;;;;;5039989;28;20103;-34
2021/12/05 03:42:56;;;;;;;68.47;34.08;;;0.50;78.90;;;;;;5039461;28;20061;-33
2021/12/05 03:45:28;;;;;;;65.25;32.28;;;0.60;79.30;;;;;;5039594;28;20096;-45
2021/12/05 03:47:56;;;;;;;59.80;30.58;;;0.60;79.60;;;;;;5039519;28;20414;-33
2021/12/05 03:50:23;;;;;;;60.20;28.38;;;0.70;80.00;;;;;;5039781;28;20120;-33
2021/12/05 03:52:49;;;;;;;62.65;30.63;;;0.70;80.40;;;;;;5039121;28;20406;-35
2021/12/05 03:55:15;;;;;;;62.55;31.08;;;0.80;80.60;;;;;;5039659;28;20333;-33
2021/12/05 03:57:41;;;;;;;53.03;28.13;;;0.90;80.80;;;;;;5039117;28;20030;-36
2021/12/05 04:00:15;;;;;;;53.63;27.98;;;1.00;80.90;;;;;;5039428;28;20033;-42
2021/12/05 04:02:41;;;;;;;55.17;29.48;;;1.00;81.10;;;;;;5039127;28;20041;-34
2021/12/05 04:05:07;;;;;;;61.85;30.13;;;1.10;81.10;;;;;;5039638;28;20029;-45
2021/12/05 04:07:33;;;;;;;61.83;29.33;;;1.20;81.20;;;;;;5039026;28;20029;-44
2021/12/05 04:09:58;;;;;;;57.00;31.38;;;1.30;81.10;;;;;;5038800;28;20057;-34
2021/12/05 04:12:24;;;;;;;57.97;30.65;;;1.40;81.00;;;;;;5039181;28;20034;-39
2021/12/05 04:14:54;;;;;;;55.92;28.02;;;1.40;80.80;;;;;;5039250;28;20038;-46
2021/12/05 04:17:21;;;;;;;64.00;30.43;;;1.40;80.60;;;;;;5039038;28;20108;-45
2021/12/05 04:19:47;;;;;;;63.78;30.73;;;1.50;80.50;;;;;;5039135;28;20286;-37
2021/12/05 04:22:13;;;;;;;69.68;30.92;;;1.50;80.50;;;;;;5039065;28;20025;-45
2021/12/05 04:24:40;;;;;;;65.10;33.35;;;1.50;80.50;;;;;;5037586;28;20422;-34
2021/12/05 04:27:07;;;;;;;63.88;31.42;;;1.50;80.60;;;;;;5039092;28;20330;-45
2021/12/05 04:29:33;;;;;;;69.97;34.80;;;1.60;80.60;;;;;;5038934;28;20049;-45
2021/12/05 04:32:00;;;;;;;78.55;38.13;;;1.60;80.30;;;;;;5038698;28;20033;-45
2021/12/05 04:34:25;;;;;;;79.78;36.45;;;1.60;80.10;;;;;;5038554;28;20033;-33
2021/12/05 04:36:56;;;;;;;82.95;40.63;;;1.60;79.80;;;;;;5038505;28;20082;-45
2021/12/05 04:39:23;;;;;;;85.88;39.90;;;1.60;79.70;;;;;;5038851;28;20041;-45
2021/12/05 04:41:49;;;;;;;96.78;40.03;;;1.50;79.50;;;;;;5038656;28;20025;-35
2021/12/05 04:44:17;;;;;;;94.18;36.38;;;1.50;79.30;;;;;;5038523;28;20041;-37
2021/12/05 04:46:42;;;;;;;98.53;36.58;;;1.50;79.20;;;;;;5038637;28;20156;-44
2021/12/05 04:49:08;;;;;;;77.68;33.10;;;1.40;79.10;;;;;;5038360;28;20084;-33
2021/12/05 04:51:39;;;;;;;81.55;32.38;;;1.30;79.10;;;;;;5038493;28;20032;-45
2021/12/05 04:54:07;;;;;;;106.88;31.40;;;1.30;79.80;;;;;;5038216;28;20445;-33
2021/12/05 04:56:34;;;;;;;78.93;28.20;;;1.10;79.10;;;;;;5036928;28;20061;-34
2021/12/05 04:59:01;;;;;;;87.85;26.15;;;1.10;79.10;;;;;;5038194;28;20038;-33
2021/12/05 05:01:27;;;;;;;80.70;27.52;;;1.00;79.30;;;;;;5038009;28;20030;-45
2021/12/05 05:03:54;;;;;;;104.20;26.98;;;0.90;79.50;;;;;;5038274;28;20042;-34
2021/12/05 05:06:21;;;;;;;67.57;26.77;;;0.80;79.80;;;;;;5037998;28;20030;-45
2021/12/05 05:08:51;;;;;;;71.93;25.38;;;0.70;80.00;;;;;;5037716;28;20068;-45
2021/12/05 05:11:19;;;;;;;74.20;27.20;;;0.70;80.30;;;;;;5038231;28;20048;-45
2021/12/05 05:13:46;;;;;;;70.65;26.92;;;0.60;80.60;;;;;;5037975;28;20100;-39
2021/12/05 05:16:14;;;;;;;74.25;26.25;;;0.60;80.90;;;;;;5038079;28;20326;-33
2021/12/05 05:18:48;;;;;;;73.68;27.08;;;0.50;81.10;;;;;;5038048;28;20037;-45
2021/12/05 05:24:01;;;;;;;77.15;29.25;;;0.50;81.60;;;;;;5037675;28;20029;-33
2021/12/05 05:50:20;;;;;;;50.55;23.75;;;0.60;83.00;;;;;;5037599;28;20096;-45
2021/12/05 05:52:46;;;;;;;56.28;26.63;;;0.70;83.20;;;;;;5037289;28;20029;-34
2021/12/05 05:55:13;;;;;;;52.85;25.25;;;0.70;83.20;;;;;;5037301;28;20044;-33
2021/12/05 05:57:48;;;;;;;47.05;24.60;;;0.70;83.10;;;;;;5037149;28;20030;-45
2021/12/05 06:00:27;;;;;;;47.85;23.80;;;0.80;83.20;;;;;;5036892;28;20037;-45
2021/12/05 06:05:36;;;;;;;41.53;20.92;;;0.90;82.80;;;;;;5036980;28;20044;-45
2021/12/05 06:08:02;;;;;;;57.90;24.55;;;1.00;82.80;;;;;;5036733;28;20321;-34
2021/12/05 06:10:29;;;;;;;42.65;22.90;;;1.00;82.70;;;;;;5036362;28;20097;-45
2021/12/05 06:12:55;;;;;;;45.42;26.75;;;1.00;82.70;;;;;;5036353;28;20120;-33
2021/12/05 06:15:24;;;;;;;46.22;25.38;;;1.10;82.60;;;;;;5036640;28;20121;-32
2021/12/05 06:17:50;;;;;;;51.08;25.75;;;1.10;82.70;;;;;;5036438;28;20029;-45
2021/12/05 06:20:18;;;;;;;55.67;28.35;;;1.10;82.60;;;;;;5036337;28;20072;-32
2021/12/05 06:22:45;;;;;;;47.15;24.65;;;1.20;82.60;;;;;;5036586;28;20334;-45
2021/12/05 06:25:18;;;;;;;54.00;28.33;;;1.30;82.60;;;;;;5036670;28;20045;-32
2021/12/05 06:27:45;;;;;;;55.85;28.00;;;1.30;82.30;;;;;;5036099;28;20160;-45
2021/12/05 06:30:28;;;;;;;63.35;29.52;;;1.30;82.10;;;;;;5036533;28;20080;-45
2021/12/05 06:38:25;;;;;;;53.92;27.17;;;1.40;81.20;;;;;;5036296;28;20392;-37
2021/12/05 06:46:11;;;;;;;44.15;23.27;;;1.50;81.10;;;;;;5036571;28;20034;-35
2021/12/05 06:48:37;;;;;;;50.70;24.15;;;1.50;80.90;;;;;;5036041;28;20056;-46
2021/12/05 06:51:04;;;;;;;48.33;23.92;;;1.60;80.80;;;;;;5036166;28;20064;-45
2021/12/05 06:53:30;;;;;;;56.80;24.98;;;1.60;80.60;;;;;;5036104;28;20049;-33
2021/12/05 06:55:56;;;;;;;51.00;24.27;;;1.60;80.40;;;;;;5035463;28;20336;-35
2021/12/05 06:58:21;;;;;;;50.20;24.80;;;1.60;79.70;;;;;;5035658;28;20094;-44
2021/12/05 07:00:47;;;;;;;48.03;22.40;;;1.60;79.50;;;;;;5035913;28;20029;-34
2021/12/05 07:03:13;;;;;;;45.85;23.20;;;1.60;79.00;;;;;;5035838;28;20108;-45
2021/12/05 07:08:06;;;;;;;42.58;19.45;;;1.50;79.30;;;;;;5035876;28;20030;-34
2021/12/05 07:10:38;;;;;;;42.80;21.40;;;1.40;79.20;;;;;;5035594;28;20053;-35
2021/12/05 07:16:15;;;;;;;47.38;21.80;;;1.40;79.00;;;;;;5035670;28;20053;-45
2021/12/05 07:19:14;;;;;;;49.22;22.00;;;1.40;79.00;;;;;;5035805;28;20068;-34
2021/12/05 07:24:39;;;;;;;49.58;19.63;;;1.30;79.00;;;;;;5035865;28;20160;-33
2021/12/05 07:40:40;;;;;;;40.30;17.42;;;0.90;79.90;;;;;;5035762;28;20084;-34
2021/12/05 07:43:09;;;;;;;30.38;15.40;;;1.00;80.20;;;;;;5035771;28;20036;-33
2021/12/05 07:45:46;;;;;;;46.17;16.75;;;1.00;80.30;;;;;;5035274;28;20124;-45
2021/12/05 07:48:17;;;;;;;51.03;22.98;;;1.00;79.90;;;;;;5035768;28;20029;-32
2021/12/05 07:50:53;;;;;;;;;;;0.90;80.00;;;;;;5036269;28;20356;-33
2021/12/05 07:53:26;;;;;;;47.65;20.40;;;0.90;80.00;;;;;;5035684;28;19909;-45
2021/12/05 07:55:55;;;;;;;39.97;19.95;;;0.90;80.50;;;;;;5035824;28;20504;-33
2021/12/05 08:14:20;;;;;;;53.28;24.58;;;0.90;80.80;;;;;;5035760;28;20056;-45
2021/12/05 08:15:11;;;;;;;59.78;23.63;;;1.10;80.60;;;;;;5038839;28;20057;-45
2021/12/05 08:17:37;;;;;;;62.13;25.75;;;1.10;80.30;;;;;;5038960;28;20053;-33
2021/12/05 08:20:06;;;;;;;64.85;26.95;;;1.10;79.90;;;;;;5039018;28;20117;-45
2021/12/05 08:22:31;;;;;;;80.47;34.75;;;1.10;79.90;;;;;;5038912;28;20017;-33
2021/12/05 08:25:07;;;;;;;169.82;77.10;;;1.10;80.10;;;;;;5038898;28;20041;-33
2021/12/05 08:27:33;;;;;;;102.65;43.00;;;1.20;80.50;;;;;;5038681;28;20040;-45
2021/12/05 08:30:06;;;;;;;66.82;30.70;;;1.20;80.70;;;;;;5038670;28;20037;-45
2021/12/05 08:32:46;;;;;;;69.53;30.73;;;1.20;80.50;;;;;;5038646;28;20029;-45
2021/12/05 08:46:26;;;;;;;88.95;35.15;;;1.30;79.60;;;;;;5038363;28;20044;-45
2021/12/05 09:22:13;;;;;;;75.28;33.70;;;1.00;78.30;;;;;;5037516;28;20032;-45
2021/12/05 10:08:42;;;;;;;51.00;24.00;;;0.80;78.80;;;;;;5036520;28;20448;-45
2021/12/05 10:14:16;;;;;;;47.00;23.25;;;0.90;78.30;;;;;;5036753;28;20042;-45
2021/12/05 10:38:37;;;;;;;116.78;49.17;;;1.20;77.60;;;;;;5036027;28;20029;-45
2021/12/05 10:43:56;;;;;;;114.93;47.72;;;1.30;77.30;;;;;;5036034;28;20049;-35
2021/12/05 10:46:24;;;;;;;106.45;44.38;;;1.30;77.30;;;;;;5036063;28;20032;-33
2021/12/05 10:48:51;;;;;;;103.75;42.75;;;1.40;77.10;;;;;;5034858;28;20033;-35
2021/12/05 10:51:25;;;;;;;103.45;41.92;;;1.40;77.20;;;;;;5035905;28;20330;-43
2021/12/05 10:54:01;;;;;;;81.88;33.83;;;1.50;77.00;;;;;;5036084;28;20040;-45
2021/12/05 10:56:31;;;;;;;97.53;38.13;;;1.60;76.20;;;;;;5035892;28;20071;-33
2021/12/05 10:59:25;;;;;;;118.57;40.33;;;1.60;75.60;;;;;;5035905;28;20025;-33
2021/12/05 11:01:53;;;;;;;148.93;46.85;;;1.60;75.20;;;;;;5036144;28;20345;-45
2021/12/05 11:04:31;;;;;;;189.60;58.70;;;1.60;75.40;;;;;;5035938;28;20371;-35
2021/12/05 11:06:58;;;;;;;205.40;57.15;;;1.60;75.70;;;;;;5035768;28;20414;-33
2021/12/05 11:09:31;;;;;;;211.98;60.10;;;1.60;75.00;;;;;;5035380;28;20388;-33
2021/12/05 11:11:58;;;;;;;227.55;62.13;;;1.60;74.10;;;;;;5035972;28;20041;-33
2021/12/05 11:14:36;;;;;;;172.80;54.83;;;1.50;74.10;;;;;;5035606;28;20406;-45
2021/12/05 11:17:07;;;;;;;129.65;45.90;;;1.50;74.20;;;;;;5035962;28;20322;-44
2021/12/05 11:19:41;;;;;;;119.63;46.15;;;1.40;74.40;;;;;;5035663;28;20026;-44
2021/12/05 11:22:15;;;;;;;112.68;43.42;;;1.40;74.60;;;;;;5035649;28;20167;-45
2021/12/05 11:24:45;;;;;;;104.60;44.22;;;1.40;74.70;;;;;;5035853;28;20025;-33
2021/12/05 11:27:16;;;;;;;112.13;43.75;;;1.30;74.90;;;;;;5035649;28;20029;-33
2021/12/05 11:29:46;;;;;;;104.22;41.30;;;1.40;75.30;;;;;;5035735;28;20413;-34
2021/12/05 11:32:33;;;;;;;111.90;44.65;;;1.40;75.50;;;;;;5035533;28;20033;-33
2021/12/05 11:35:13;;;;;;;98.57;42.88;;;1.40;75.60;;;;;;5035857;28;20310;-39
2021/12/05 11:37:50;;;;;;;90.95;41.17;;;1.40;75.30;;;;;;5035882;28;20048;-34
2021/12/05 11:40:15;;;;;;;91.30;40.15;;;1.40;75.40;;;;;;5035662;28;20106;-34
2021/12/05 11:42:57;;;;;;;89.60;41.30;;;1.40;75.20;;;;;;5036476;28;20080;-36
2021/12/05 11:45:23;;;;;;;101.05;44.85;;;1.40;75.20;;;;;;5039802;28;20351;-34
2021/12/05 11:47:51;;;;;;;95.93;41.25;;;1.50;75.40;;;;;;5038239;28;20114;-45
2021/12/05 11:50:19;;;;;;;101.65;41.72;;;1.40;75.50;;;;;;5039667;28;20033;-35
2021/12/05 11:52:48;;;;;;;107.05;43.88;;;1.50;76.10;;;;;;5039505;28;20497;-34
2021/12/05 11:55:25;;;;;;;76.32;31.88;;;1.50;75.60;;;;;;5039394;28;20034;-45
2021/12/05 11:57:51;;;;;;;66.85;29.27;;;1.60;75.60;;;;;;5038929;28;20537;-46
2021/12/05 12:00:19;;;;;;;66.10;29.05;;;1.60;75.50;;;;;;5039324;28;20097;-45
2021/12/05 12:02:46;;;;;;;57.35;25.17;;;1.70;75.30;;;;;;5039134;28;20029;-46
2021/12/05 12:05:28;;;;;;;55.90;23.17;;;1.70;74.80;;;;;;5039430;28;20029;-34
2021/12/05 12:08:07;;;;;;;51.35;26.10;;;1.70;74.40;;;;;;5038880;28;20060;-34
2021/12/05 12:10:39;;;;;;;51.45;23.45;;;1.70;74.60;;;;;;5038516;28;20045;-36
2021/12/05 12:13:13;;;;;;;38.30;19.08;;;1.70;74.90;;;;;;5038489;28;20433;-33
2021/12/05 12:15:42;;;;;;;36.45;18.73;;;1.70;75.00;;;;;;5037996;28;20295;-33
2021/12/05 12:18:17;;;;;;;35.50;19.23;;;1.70;74.90;;;;;;5038969;28;20365;-37
2021/12/05 12:20:46;;;;;;;35.80;19.25;;;1.70;74.80;;;;;;5038900;28;20120;-35
2021/12/05 12:23:15;;;;;;;34.80;19.48;;;1.70;74.90;;;;;;5038701;28;20025;-45
2021/12/05 12:25:43;;;;;;;40.13;20.63;;;1.70;74.80;;;;;;5038685;28;20037;-34
2021/12/05 12:28:10;;;;;;;43.03;20.15;;;1.80;74.80;;;;;;5038799;28;20033;-35
2021/12/05 12:30:40;;;;;;;41.65;20.30;;;1.80;74.30;;;;;;5038487;28;20091;-44
2021/12/05 12:33:13;;;;;;;39.45;19.77;;;1.80;74.30;;;;;;5038661;28;20029;-35
2021/12/05 12:35:39;;;;;;;54.50;24.63;;;1.80;74.10;;;;;;5038154;28;20045;-35
2021/12/05 12:38:14;;;;;;;55.72;22.05;;;1.80;74.30;;;;;;5038172;28;20037;-34
2021/12/05 12:41:12;;;;;;;105.10;31.17;;;1.80;74.10;;;;;;5038718;28;20299;-33
2021/12/05 12:44:05;;;;;;;93.28;31.00;;;1.80;73.80;;;;;;5037694;28;20441;-45
2021/12/05 12:46:40;;;;;;;95.75;28.08;;;1.70;73.80;;;;;;5037962;28;20043;-34
2021/12/05 12:49:15;;;;;;;57.63;21.00;;;1.70;73.60;;;;;;5038261;28;20025;-46
2021/12/05 12:51:58;;;;;;;43.80;19.38;;;1.70;73.60;;;;;;5037998;28;20440;-35
2021/12/05 12:54:45;;;;;;;35.25;17.63;;;1.60;74.20;;;;;;5037921;28;20091;-46
2021/12/05 12:57:24;;;;;;;32.35;16.55;;;1.60;73.70;;;;;;5038060;28;20029;-38
2021/12/05 12:59:54;;;;;;;63.08;24.75;;;1.50;73.60;;;;;;5038190;28;20033;-34
2021/12/05 13:11:04;;;;;;;45.22;20.55;;;1.50;74.50;;;;;;5037678;28;20464;-34
2021/12/05 13:13:32;;;;;;;53.90;20.95;;;1.50;74.70;;;;;;5037483;28;20398;-46
2021/12/05 13:16:19;;;;;;;64.53;25.58;;;1.50;74.70;;;;;;5038203;28;20033;-46
2021/12/05 13:18:48;;;;;;;43.72;18.98;;;1.50;74.70;;;;;;5037506;28;20037;-46
2021/12/05 13:21:30;;;;;;;54.53;22.33;;;1.60;74.80;;;;;;5037730;28;20036;-35
2021/12/05 13:23:56;;;;;;;87.63;28.30;;;1.60;74.60;;;;;;5037774;28;20025;-46
2021/12/05 13:26:34;;;;;;;100.47;33.42;;;1.60;74.60;;;;;;5037783;28;20333;-35
2021/12/05 13:29:21;;;;;;;130.65;36.17;;;1.60;74.60;;;;;;5037219;28;20325;-34
2021/12/05 13:31:53;;;;;;;144.80;46.75;;;1.60;74.40;;;;;;5037567;28;20098;-35
2021/12/05 13:34:28;;;;;;;124.18;37.28;;;1.60;74.40;;;;;;5037682;28;20037;-45
2021/12/05 13:37:10;;;;;;;114.32;35.40;;;1.60;74.40;;;;;;5037358;28;20422;-34
2021/12/05 13:39:42;;;;;;;113.03;35.08;;;1.60;74.50;;;;;;5037794;28;20025;-45
2021/12/05 13:42:26;;;;;;;95.78;32.95;;;1.60;74.30;;;;;;5037690;28;20033;-34
2021/12/05 13:45:04;;;;;;;87.20;28.33;;;1.60;74.00;;;;;;5036278;28;20037;-45
2021/12/05 13:47:39;;;;;;;97.03;34.78;;;1.60;74.00;;;;;;5035967;28;20029;-46
2021/12/05 13:50:36;;;;;;;85.90;27.98;;;1.50;74.10;;;;;;5037341;28;20038;-45
2021/12/05 13:53:02;;;;;;;73.72;25.52;;;1.50;74.30;;;;;;5036535;28;20045;-45
2021/12/05 13:55:46;;;;;;;108.70;38.05;;;1.50;74.40;;;;;;5037201;28;20087;-45
2021/12/05 13:58:40;;;;;;;119.45;39.92;;;1.50;74.60;;;;;;5037102;28;20022;-34
2021/12/05 14:01:15;;;;;;;112.10;35.63;;;1.40;74.50;;;;;;5036442;28;20121;-45
2021/12/05 14:03:56;;;;;;;126.47;44.50;;;1.40;74.50;;;;;;5036695;28;20022;-46
2021/12/05 14:06:35;;;;;;;167.48;44.05;;;1.40;74.60;;;;;;5036029;28;20021;-34
2021/12/05 14:09:04;;;;;;;159.68;42.90;;;1.40;75.30;;;;;;5036593;28;20100;-33
2021/12/05 14:11:30;;;;;;;100.88;33.05;;;1.40;74.80;;;;;;5036904;28;20037;-34
2021/12/05 14:13:56;;;;;;;122.28;40.10;;;1.40;74.70;;;;;;5036732;28;20033;-46
2021/12/05 14:16:40;;;;;;;135.07;47.65;;;1.40;74.60;;;;;;5036455;28;20040;-33
2021/12/05 14:19:14;;;;;;;91.78;31.38;;;1.40;74.90;;;;;;5035359;28;20032;-46
2021/12/05 14:21:44;;;;;;;65.10;27.13;;;1.40;75.10;;;;;;5036076;28;20440;-34
2021/12/05 14:24:11;;;;;;;67.28;26.63;;;1.40;75.20;;;;;;5036445;28;20515;-46
2021/12/05 14:26:39;;;;;;;72.32;29.65;;;1.40;75.30;;;;;;5036130;28;20414;-34
2021/12/05 14:29:20;;;;;;;77.20;27.90;;;1.40;75.40;;;;;;5036397;28;20037;-35
2021/12/05 14:31:52;;;;;;;45.35;21.65;;;1.50;75.50;;;;;;5036690;28;20029;-33
2021/12/05 14:34:18;;;;;;;56.70;23.23;;;1.50;75.50;;;;;;5036140;28;20053;-46
2021/12/05 14:36:47;;;;;;;41.85;19.95;;;1.50;75.40;;;;;;5036347;28;20029;-45
2021/12/05 14:39:23;;;;;;;47.25;18.02;;;1.60;75.20;;;;;;5036409;28;20060;-44
2021/12/05 14:41:53;;;;;;;40.30;18.83;;;1.60;75.10;;;;;;5036338;28;20029;-45
2021/12/05 14:44:20;;;;;;;34.97;16.27;;;1.50;75.00;;;;;;5036549;28;20425;-34
2021/12/05 14:46:58;;;;;;;33.25;16.98;;;1.50;74.80;;;;;;5036321;28;20057;-33
2021/12/05 14:49:27;;;;;;;33.08;16.40;;;1.50;75.00;;;;;;5034932;28;20021;-46
2021/12/05 14:51:54;;;;;;;34.92;18.20;;;1.50;74.90;;;;;;5035943;28;20018;-45
2021/12/05 14:54:24;;;;;;;40.17;19.90;;;1.40;74.90;;;;;;5036219;28;20315;-34
2021/12/05 14:56:50;;;;;;;44.17;20.85;;;1.40;75.10;;;;;;5035881;28;20063;-33
2021/12/05 14:59:18;;;;;;;46.13;26.45;;;1.40;75.10;;;;;;5036236;28;20037;-46
2021/12/05 15:01:47;;;;;;;39.83;21.67;;;1.40;75.20;;;;;;5036013;28;20033;-46
2021/12/05 15:04:19;;;;;;;40.55;21.17;;;1.40;75.20;;;;;;5036030;28;20101;-35
2021/12/05 15:06:45;;;;;;;39.70;20.52;;;1.40;75.50;;;;;;5036209;28;20029;-34
2021/12/05 15:09:20;;;;;;;43.05;20.63;;;1.40;75.70;;;;;;5035562;28;20484;-46
2021/12/05 15:12:16;;;;;;;41.00;20.50;;;1.40;75.70;;;;;;5036062;28;20322;-35
2021/12/05 15:14:44;;;;;;;44.15;21.67;;;1.40;75.80;;;;;;5035937;28;20034;-46
2021/12/05 15:17:20;;;;;;;49.55;22.90;;;1.40;75.80;;;;;;5039078;28;20108;-45
2021/12/05 15:19:52;;;;;;;45.35;21.90;;;1.50;76.00;;;;;;5042461;28;20321;-46
2021/12/05 15:22:19;;;;;;;38.85;21.25;;;1.50;75.90;;;;;;5042448;28;20350;-34
2021/12/05 15:24:57;;;;;;;54.15;23.80;;;1.50;76.20;;;;;;5042558;28;20424;-46
2021/12/05 15:27:27;;;;;;;49.97;24.92;;;1.60;75.80;;;;;;5042132;28;20041;-42
2021/12/05 15:29:58;;;;;;;48.97;25.05;;;1.60;75.70;;;;;;5042599;28;20041;-34
2021/12/05 15:32:26;;;;;;;44.45;21.90;;;1.60;75.80;;;;;;5042451;28;20042;-34
2021/12/05 15:34:55;;;;;;;43.65;21.95;;;1.60;75.70;;;;;;5041946;28;20033;-33
2021/12/05 15:37:22;;;;;;;54.30;26.30;;;1.60;75.50;;;;;;5042185;28;20325;-33
2021/12/05 15:39:50;;;;;;;42.63;21.48;;;1.60;75.50;;;;;;5042663;28;20091;-45
2021/12/05 15:42:27;;;;;;;38.60;21.35;;;1.60;75.30;;;;;;5042348;28;20029;-35
2021/12/05 15:44:55;;;;;;;55.55;26.90;;;1.70;75.30;;;;;;5042415;28;20049;-45
2021/12/05 15:47:27;;;;;;;44.55;22.42;;;1.70;75.40;;;;;;5042238;28;20057;-35
2021/12/05 15:49:57;;;;;;;54.40;25.95;;;1.70;75.60;;;;;;5042258;28;20087;-34
2021/12/05 15:52:27;;;;;;;47.35;23.88;;;1.70;75.60;;;;;;5042308;28;20116;-34
2021/12/05 15:54:55;;;;;;;52.63;27.20;;;1.70;75.70;;;;;;5042172;28;20033;-34
2021/12/05 15:57:31;;;;;;;58.35;29.70;;;1.80;75.60;;;;;;5042218;28;20444;-46
2021/12/05 15:59:59;;;;;;;64.10;29.70;;;1.80;75.60;;;;;;5042322;28;20057;-45
2021/12/05 16:02:25;;;;;;;60.42;28.02;;;1.80;75.40;;;;;;5041817;28;20030;-45
2021/12/05 16:04:51;;;;;;;58.65;25.38;;;1.80;75.50;;;;;;5042277;28;20075;-45
2021/12/05 16:07:18;;;;;;;63.25;27.17;;;1.80;75.40;;;;;;5041963;28;20084;-34
2021/12/05 16:09:45;;;;;;;83.90;34.33;;;1.80;75.40;;;;;;5041951;28;20434;-45
2021/12/05 16:12:19;;;;;;;50.63;25.08;;;1.90;75.50;;;;;;5042289;28;20508;-45
2021/12/05 16:14:52;;;;;;;40.00;20.67;;;1.90;75.40;;;;;;5042020;28;20030;-38
2021/12/05 16:17:29;;;;;;;48.38;24.73;;;1.90;75.20;;;;;;5041762;28;20160;-34
2021/12/05 16:20:12;;;;;;;55.70;26.48;;;1.90;75.20;;;;;;5041977;28;20139;-33
2021/12/05 16:23:02;;;;;;;50.78;23.30;;;1.90;75.30;;;;;;5041701;28;20029;-44
2021/12/05 16:25:29;;;;;;;49.92;24.95;;;1.90;75.40;;;;;;5042010;28;20416;-33
2021/12/05 16:28:01;;;;;;;50.40;25.85;;;1.90;75.50;;;;;;5040799;28;20049;-34
2021/12/05 16:30:34;;;;;;;52.65;25.55;;;1.90;75.50;;;;;;5038860;28;20067;-35
2021/12/05 16:33:02;;;;;;;42.00;22.48;;;2.00;75.50;;;;;;5038680;28;20044;-45
2021/12/05 16:35:35;;;;;;;42.97;21.70;;;2.00;75.50;;;;;;5038768;28;20061;-45
2021/12/05 16:38:24;;;;;;;43.53;21.25;;;2.00;75.40;;;;;;5038644;28;20030;-34
2021/12/05 16:41:10;;;;;;;48.38;24.23;;;2.00;75.30;;;;;;5038788;28;20044;-36
2021/12/05 16:43:48;;;;;;;46.40;22.45;;;2.00;75.30;;;;;;5037210;28;20443;-35
2021/12/05 16:46:49;;;;;;;47.53;24.42;;;2.00;75.40;;;;;;5038692;28;20037;-33
2021/12/05 16:49:20;;;;;;;45.65;23.02;;;2.00;75.50;;;;;;5026371;28;20133;-45
2021/12/05 16:51:56;;;;;;;56.65;26.90;;;2.10;75.40;;;;;;5038415;28;20372;-38
2021/12/05 16:54:37;;;;;;;58.60;26.92;;;2.10;75.50;;;;;;5038267;28;20121;-45
2021/12/05 16:57:06;;;;;;;;;;;2.10;75.50;;;;;;5038651;28;20030;-33
2021/12/05 16:59:47;;;;;;;61.75;27.70;;;2.10;75.30;;;;;;5038365;28;19932;-45
2021/12/05 17:02:30;;;;;;;57.95;26.38;;;2.00;75.40;;;;;;5038233;28;20339;-34
2021/12/05 17:05:04;;;;;;;53.33;24.75;;;2.10;75.50;;;;;;5038547;28;20036;-33
2021/12/05 17:07:41;;;;;;;46.97;22.80;;;2.10;75.60;;;;;;5037889;28;20034;-33
2021/12/05 17:10:25;;;;;;;49.92;24.42;;;2.10;75.60;;;;;;5037866;28;20334;-35
2021/12/05 17:13:04;;;;;;;45.65;22.52;;;2.10;75.50;;;;;;5038206;28;20328;-44
2021/12/05 17:15:31;;;;;;;44.72;22.33;;;2.10;75.50;;;;;;5037986;28;20040;-34
2021/12/05 17:18:03;;;;;;;44.95;22.75;;;2.10;75.50;;;;;;5037978;28;20329;-45
2021/12/05 17:20:36;;;;;;;43.65;24.30;;;2.10;75.60;;;;;;5038141;28;20036;-45
2021/12/05 17:23:12;;;;;;;46.00;25.33;;;2.10;75.70;;;;;;5037908;28;20051;-45
2021/12/05 17:25:44;;;;;;;49.30;26.35;;;2.20;75.80;;;;;;5037812;28;20041;-45
2021/12/05 17:28:35;;;;;;;53.72;29.27;;;2.20;75.80;;;;;;5037781;28;20022;-35
2021/12/05 17:31:05;;;;;;;41.60;23.67;;;2.20;75.60;;;;;;5037940;28;20036;-33
2021/12/05 17:33:40;;;;;;;42.95;22.23;;;2.20;75.60;;;;;;5037365;28;20044;-36
2021/12/05 17:36:26;;;;;;;42.67;21.75;;;2.20;75.40;;;;;;5037416;28;20146;-34
2021/12/05 17:38:57;;;;;;;51.88;22.15;;;2.20;75.20;;;;;;5037582;28;20030;-45
2021/12/05 17:41:26;;;;;;;41.47;22.65;;;2.20;75.20;;;;;;5036492;28;20338;-45
2021/12/05 17:43:52;;;;;;;40.45;20.85;;;2.20;75.30;;;;;;5037320;28;20037;-45
2021/12/05 17:46:18;;;;;;;42.78;22.45;;;2.20;75.30;;;;;;5037093;28;20364;-36
2021/12/05 17:48:44;;;;;;;39.97;21.88;;;2.20;75.40;;;;;;5037420;28;20040;-45
2021/12/05 17:51:10;;;;;;;41.67;21.45;;;2.20;75.50;;;;;;5037099;28;20155;-45
2021/12/05 17:53:38;;;;;;;50.10;24.05;;;2.20;75.50;;;;;;5037195;28;20033;-45
2021/12/05 18:04:42;;;;;;;53.05;26.27;;;2.20;75.60;;;;;;5037028;28;20083;-45
2021/12/05 18:07:10;;;;;;;56.58;28.30;;;2.20;75.80;;;;;;5037232;28;20041;-45
2021/12/05 18:09:36;;;;;;;51.80;26.63;;;2.20;75.80;;;;;;5036887;28;20510;-34
2021/12/05 18:12:05;;;;;;;56.47;26.90;;;2.20;75.80;;;;;;5036894;28;20112;-37
2021/12/05 18:14:31;;;;;;;55.58;26.98;;;2.20;75.70;;;;;;5036766;28;20033;-45
2021/12/05 18:16:57;;;;;;;51.88;24.60;;;2.20;75.80;;;;;;5036515;28;20056;-46
2021/12/05 18:19:22;;;;;;;52.25;25.73;;;2.20;75.70;;;;;;5036851;28;20030;-44
2021/12/05 18:21:49;;;;;;;45.58;25.63;;;2.20;75.70;;;;;;5036776;28;20417;-37
2021/12/05 18:24:18;;;;;;;44.88;22.65;;;2.20;75.80;;;;;;5036655;28;20025;-37
2021/12/05 18:26:45;;;;;;;55.03;27.65;;;2.20;75.80;;;;;;5036737;28;20374;-45
2021/12/05 18:29:15;;;;;;;51.10;26.23;;;2.20;75.90;;;;;;5036681;28;20030;-35
2021/12/05 18:31:40;;;;;;;53.13;27.40;;;2.20;76.10;;;;;;5036558;28;20040;-35
2021/12/05 18:34:24;;;;;;;55.20;28.35;;;2.20;76.10;;;;;;5036566;28;20057;-33
2021/12/05 18:36:52;;;;;;;52.50;27.52;;;2.30;76.20;;;;;;5036548;28;20115;-33
2021/12/05 18:39:23;;;;;;;55.53;27.83;;;2.30;76.30;;;;;;5036370;28;20095;-35
2021/12/05 18:41:50;;;;;;;;;;;2.30;76.30;;;;;;5035536;28;20044;-46
2021/12/05 18:44:19;;;;;;;49.47;25.05;;;2.30;76.20;;;;;;5036234;28;19959;-45
2021/12/05 18:46:46;;;;;;;50.30;24.23;;;2.30;76.40;;;;;;5036334;28;20122;-34
2021/12/05 18:49:13;;;;;;;44.85;24.38;;;2.30;76.30;;;;;;5036637;28;20076;-45